sensor_id;sensor_type;location;lat;lon;timestamp;pressure;altitude;pressure_sealevel;temperature;humidity
15382;BME280;7789;51.364;12.358;2022-12-10T00:00:26;99453.19;;;3.23;100.00
15382;BME280;7789;51.364;12.358;2022-12-10T00:05:51;99461.88;;;3.22;100.00
15382;BME280;7789;51.364;12.358;2022-12-10T00:11:25;99453.28;;;3.21;100.00
15382;BME280;7789;51.364;12.358;2022-12-10T00:16:49;99452.78;;;3.16;100.00
15382;BME280;7789;51.364;12.358;2022-12-10T00:22:15;99458.03;;;3.15;100.00
15382;BME280;7789;51.364;12.358;2022-12-10T00:28:01;99450.91;;;3.06;100.00
15382;BME280;7789;51.364;12.358;2022-12-10T00:33:28;99456.88;;;3.06;100.00
15382;BME280;7789;51.364;12.358;2022-12-10T00:38:59;99453.28;;;3.09;100.00
15382;BME280;7789;51.364;12.358;2022-12-10T00:44:27;99460.22;;;3.08;100.00
15382;BME280;7789;51.364;12.358;2022-12-10T00:49:51;99459.16;;;2.98;100.00
15382;BME280;7789;51.364;12.358;2022-12-10T00:55:14;99464.50;;;2.95;100.00
15382;BME280;7789;51.364;12.358;2022-12-10T01:00:49;99471.22;;;2.98;100.00
15382;BME280;7789;51.364;12.358;2022-12-10T01:06:17;99475.03;;;2.92;100.00
15382;BME280;7789;51.364;12.358;2022-12-10T01:11:43;99479.78;;;2.98;100.00
15382;BME280;7789;51.364;12.358;2022-12-10T01:17:24;99487.75;;;2.95;100.00
15382;BME280;7789;51.364;12.358;2022-12-10T01:22:48;99478.44;;;2.93;100.00
15382;BME280;7789;51.364;12.358;2022-12-10T01:28:15;99477.63;;;2.92;100.00
15382;BME280;7789;51.364;12.358;2022-12-10T01:33:42;99476.06;;;2.90;100.00
15382;BME280;7789;51.364;12.358;2022-12-10T01:39:12;99491.13;;;2.96;100.00
15382;BME280;7789;51.364;12.358;2022-12-10T01:45:19;99480.63;;;2.99;100.00
15382;BME280;7789;51.364;12.358;2022-12-10T01:50:44;99491.97;;;2.96;100.00
15382;BME280;7789;51.364;12.358;2022-12-10T01:56:20;99488.88;;;2.91;100.00
15382;BME280;7789;51.364;12.358;2022-12-10T02:02:05;99481.84;;;2.93;100.00
15382;BME280;7789;51.364;12.358;2022-12-10T02:07:51;99493.00;;;2.94;100.00
15382;BME280;7789;51.364;12.358;2022-12-10T02:13:22;99488.56;;;2.96;100.00
15382;BME280;7789;51.364;12.358;2022-12-10T02:19:00;99485.97;;;2.96;100.00
15382;BME280;7789;51.364;12.358;2022-12-10T02:24:53;99474.94;;;2.94;100.00
15382;BME280;7789;51.364;12.358;2022-12-10T02:30:48;99479.16;;;2.95;100.00
15382;BME280;7789;51.364;12.358;2022-12-10T02:36:21;99480.00;;;2.95;100.00
15382;BME280;7789;51.364;12.358;2022-12-10T02:41:50;99480.94;;;2.94;100.00
15382;BME280;7789;51.364;12.358;2022-12-10T02:47:23;99483.38;;;2.96;100.00
15382;BME280;7789;51.364;12.358;2022-12-10T02:52:53;99484.97;;;2.98;100.00
15382;BME280;7789;51.364;12.358;2022-12-10T02:58:25;99487.44;;;3.00;100.00
15382;BME280;7789;51.364;12.358;2022-12-10T03:03:55;99479.06;;;2.96;100.00
15382;BME280;7789;51.364;12.358;2022-12-10T03:09:26;99490.84;;;3.00;100.00
15382;BME280;7789;51.364;12.358;2022-12-10T03:15:05;99498.69;;;2.99;100.00
15382;BME280;7789;51.364;12.358;2022-12-10T03:20:42;99501.88;;;3.02;100.00
15382;BME280;7789;51.364;12.358;2022-12-10T03:26:09;99495.19;;;3.00;100.00
15382;BME280;7789;51.364;12.358;2022-12-10T03:31:53;99504.59;;;3.01;100.00
15382;BME280;7789;51.364;12.358;2022-12-10T03:37:24;99490.84;;;3.00;100.00
15382;BME280;7789;51.364;12.358;2022-12-10T03:43:03;99482.47;;;2.97;100.00
15382;BME280;7789;51.364;12.358;2022-12-10T03:48:26;99483.50;;;2.94;100.00
15382;BME280;7789;51.364;12.358;2022-12-10T03:53:59;99491.53;;;2.90;100.00
15382;BME280;7789;51.364;12.358;2022-12-10T03:59:24;99490.19;;;2.84;100.00
15382;BME280;7789;51.364;12.358;2022-12-10T04:04:52;99497.28;;;2.81;100.00
15382;BME280;7789;51.364;12.358;2022-12-10T04:10:27;99493.25;;;2.77;100.00
15382;BME280;7789;51.364;12.358;2022-12-10T04:15:52;99492.31;;;2.78;100.00
15382;BME280;7789;51.364;12.358;2022-12-10T04:21:37;99496.75;;;2.76;100.00
15382;BME280;7789;51.364;12.358;2022-12-10T04:27:22;99501.00;;;2.77;100.00
15382;BME280;7789;51.364;12.358;2022-12-10T04:32:47;99488.00;;;2.78;100.00
15382;BME280;7789;51.364;12.358;2022-12-10T04:38:26;99478.41;;;2.80;100.00
15382;BME280;7789;51.364;12.358;2022-12-10T04:44:11;99474.06;;;2.81;100.00
15382;BME280;7789;51.364;12.358;2022-12-10T04:49:35;99476.47;;;2.84;100.00
15382;BME280;7789;51.364;12.358;2022-12-10T04:55:01;99476.84;;;2.78;100.00
15382;BME280;7789;51.364;12.358;2022-12-10T05:00:32;99483.84;;;2.76;100.00
15382;BME280;7789;51.364;12.358;2022-12-10T05:05:54;99483.84;;;2.76;100.00
15382;BME280;7789;51.364;12.358;2022-12-10T05:11:20;99473.75;;;2.73;100.00
15382;BME280;7789;51.364;12.358;2022-12-10T05:16:55;99484.69;;;2.76;100.00
15382;BME280;7789;51.364;12.358;2022-12-10T05:22:39;99480.47;;;2.75;100.00
15382;BME280;7789;51.364;12.358;2022-12-10T05:28:36;99483.78;;;2.77;100.00
15382;BME280;7789;51.364;12.358;2022-12-10T05:34:06;99496.97;;;2.73;100.00
15382;BME280;7789;51.364;12.358;2022-12-10T05:39:34;99502.31;;;2.70;100.00
15382;BME280;7789;51.364;12.358;2022-12-10T05:45:05;99505.63;;;2.72;100.00
15382;BME280;7789;51.364;12.358;2022-12-10T05:50:32;99522.22;;;2.68;100.00
15382;BME280;7789;51.364;12.358;2022-12-10T05:56:06;99514.78;;;2.63;100.00
15382;BME280;7789;51.364;12.358;2022-12-10T06:07:22;99510.63;;;2.61;100.00
15382;BME280;7789;51.364;12.358;2022-12-10T06:12:50;99510.03;;;2.57;100.00
15382;BME280;7789;51.364;12.358;2022-12-10T06:18:19;99522.47;;;2.51;100.00
15382;BME280;7789;51.364;12.358;2022-12-10T06:23:51;99524.13;;;2.52;100.00
15382;BME280;7789;51.364;12.358;2022-12-10T06:29:23;99528.75;;;2.47;100.00
15382;BME280;7789;51.364;12.358;2022-12-10T06:34:59;99534.53;;;2.50;100.00
15382;BME280;7789;51.364;12.358;2022-12-10T06:40:30;99539.16;;;2.45;100.00
15382;BME280;7789;51.364;12.358;2022-12-10T06:45:58;99541.00;;;2.43;100.00
15382;BME280;7789;51.364;12.358;2022-12-10T06:51:21;99546.88;;;2.45;100.00
15382;BME280;7789;51.364;12.358;2022-12-10T06:56:50;99554.91;;;2.41;100.00
15382;BME280;7789;51.364;12.358;2022-12-10T07:02:25;99556.75;;;2.39;100.00
15382;BME280;7789;51.364;12.358;2022-12-10T07:07:55;99557.66;;;2.38;100.00
15382;BME280;7789;51.364;12.358;2022-12-10T07:13:25;99575.78;;;2.36;100.00
15382;BME280;7789;51.364;12.358;2022-12-10T07:18:50;99560.91;;;2.27;100.00
15382;BME280;7789;51.364;12.358;2022-12-10T07:24:18;99572.22;;;2.25;100.00
15382;BME280;7789;51.364;12.358;2022-12-10T07:30:06;99576.84;;;2.20;100.00
15382;BME280;7789;51.364;12.358;2022-12-10T07:35:30;99574.00;;;2.24;100.00
15382;BME280;7789;51.364;12.358;2022-12-10T07:40:55;99579.03;;;2.26;100.00
15382;BME280;7789;51.364;12.358;2022-12-10T07:46:51;99579.50;;;2.32;100.00
15382;BME280;7789;51.364;12.358;2022-12-10T07:52:21;99586.56;;;2.29;100.00
15382;BME280;7789;51.364;12.358;2022-12-10T07:57:56;99582.91;;;2.33;100.00
15382;BME280;7789;51.364;12.358;2022-12-10T08:09:25;99584.66;;;2.32;100.00
15382;BME280;7789;51.364;12.358;2022-12-10T08:14:49;99600.97;;;2.33;100.00
15382;BME280;7789;51.364;12.358;2022-12-10T08:20:30;99597.19;;;2.38;100.00
15382;BME280;7789;51.364;12.358;2022-12-10T08:26:08;99602.34;;;2.38;100.00
15382;BME280;7789;51.364;12.358;2022-12-10T08:31:40;99608.13;;;2.42;100.00
15382;BME280;7789;51.364;12.358;2022-12-10T08:37:25;99617.97;;;2.35;100.00
15382;BME280;7789;51.364;12.358;2022-12-10T08:42:51;99615.13;;;2.40;100.00
15382;BME280;7789;51.364;12.358;2022-12-10T08:48:18;99615.84;;;2.42;100.00
15382;BME280;7789;51.364;12.358;2022-12-10T08:53:47;99623.50;;;2.43;100.00
15382;BME280;7789;51.364;12.358;2022-12-10T08:59:13;99623.25;;;2.48;100.00
15382;BME280;7789;51.364;12.358;2022-12-10T09:04:36;99627.09;;;2.41;100.00
15382;BME280;7789;51.364;12.358;2022-12-10T09:10:00;99632.38;;;2.39;100.00
15382;BME280;7789;51.364;12.358;2022-12-10T09:15:36;99622.66;;;2.43;100.00
15382;BME280;7789;51.364;12.358;2022-12-10T09:21:07;99637.59;;;2.52;100.00
15382;BME280;7789;51.364;12.358;2022-12-10T09:26:59;99636.03;;;2.49;100.00
15382;BME280;7789;51.364;12.358;2022-12-10T09:32:29;99632.59;;;2.63;100.00
15382;BME280;7789;51.364;12.358;2022-12-10T09:37:54;99634.25;;;2.64;100.00
15382;BME280;7789;51.364;12.358;2022-12-10T09:43:32;99629.72;;;2.67;100.00
15382;BME280;7789;51.364;12.358;2022-12-10T09:49:11;99622.97;;;2.79;100.00
15382;BME280;7789;51.364;12.358;2022-12-10T09:54:50;99617.09;;;2.77;100.00
15382;BME280;7789;51.364;12.358;2022-12-10T10:00:37;99616.34;;;2.75;100.00
15382;BME280;7789;51.364;12.358;2022-12-10T10:06:12;99611.84;;;2.78;100.00
15382;BME280;7789;51.364;12.358;2022-12-10T10:11:52;99626.69;;;2.75;100.00
15382;BME280;7789;51.364;12.358;2022-12-10T10:17:23;99625.00;;;2.88;100.00
15382;BME280;7789;51.364;12.358;2022-12-10T10:22:59;99627.28;;;2.92;100.00
15382;BME280;7789;51.364;12.358;2022-12-10T10:28:25;99623.59;;;2.96;100.00
15382;BME280;7789;51.364;12.358;2022-12-10T10:33:52;99625.16;;;2.99;100.00
15382;BME280;7789;51.364;12.358;2022-12-10T10:39:27;99635.84;;;2.93;100.00
15382;BME280;7789;51.364;12.358;2022-12-10T10:45:31;99632.47;;;2.92;100.00
15382;BME280;7789;51.364;12.358;2022-12-10T10:51:06;99638.72;;;2.88;100.00
15382;BME280;7789;51.364;12.358;2022-12-10T10:56:42;99632.28;;;2.81;100.00
15382;BME280;7789;51.364;12.358;2022-12-10T11:02:26;99622.41;;;2.88;100.00
15382;BME280;7789;51.364;12.358;2022-12-10T11:07:58;99625.91;;;2.87;100.00
15382;BME280;7789;51.364;12.358;2022-12-10T11:13:30;99629.16;;;2.90;100.00
15382;BME280;7789;51.364;12.358;2022-12-10T11:18:57;99622.75;;;2.96;100.00
15382;BME280;7789;51.364;12.358;2022-12-10T11:24:25;99611.41;;;2.98;100.00
15382;BME280;7789;51.364;12.358;2022-12-10T11:30:03;99618.16;;;3.01;100.00
15382;BME280;7789;51.364;12.358;2022-12-10T11:35:41;99627.84;;;2.97;100.00
15382;BME280;7789;51.364;12.358;2022-12-10T11:41:18;99618.22;;;2.99;100.00
15382;BME280;7789;51.364;12.358;2022-12-10T11:47:01;99622.66;;;2.97;100.00
15382;BME280;7789;51.364;12.358;2022-12-10T11:52:40;99625.69;;;3.04;100.00
15382;BME280;7789;51.364;12.358;2022-12-10T11:58:28;99629.41;;;3.00;100.00
15382;BME280;7789;51.364;12.358;2022-12-10T12:09:59;99621.22;;;2.93;100.00
15382;BME280;7789;51.364;12.358;2022-12-10T12:15:30;99627.28;;;2.92;100.00
15382;BME280;7789;51.364;12.358;2022-12-10T12:20:57;99620.16;;;2.96;100.00
15382;BME280;7789;51.364;12.358;2022-12-10T12:26:25;99635.66;;;2.96;100.00
15382;BME280;7789;51.364;12.358;2022-12-10T12:31:55;99623.47;;;2.98;100.00
15382;BME280;7789;51.364;12.358;2022-12-10T12:37:26;99620.00;;;2.99;100.00
15382;BME280;7789;51.364;12.358;2022-12-10T12:42:54;99620.16;;;2.96;100.00
15382;BME280;7789;51.364;12.358;2022-12-10T12:48:23;99634.56;;;3.00;100.00
15382;BME280;7789;51.364;12.358;2022-12-10T12:53:48;99638.47;;;3.05;100.00
15382;BME280;7789;51.364;12.358;2022-12-10T12:59:18;99637.19;;;3.12;100.00
15382;BME280;7789;51.364;12.358;2022-12-10T13:04:43;99632.94;;;3.11;100.00
15382;BME280;7789;51.364;12.358;2022-12-10T13:10:22;99642.34;;;3.12;100.00
15382;BME280;7789;51.364;12.358;2022-12-10T13:15:46;99646.19;;;3.19;100.00
15382;BME280;7789;51.364;12.358;2022-12-10T13:21:30;99649.97;;;3.14;100.00
15382;BME280;7789;51.364;12.358;2022-12-10T13:27:03;99650.81;;;3.14;100.00
15382;BME280;7789;51.364;12.358;2022-12-10T13:32:43;99648.25;;;3.14;100.00
15382;BME280;7789;51.364;12.358;2022-12-10T13:38:18;99656.00;;;3.14;100.00
15382;BME280;7789;51.364;12.358;2022-12-10T13:43:41;99647.31;;;3.15;100.00
15382;BME280;7789;51.364;12.358;2022-12-10T13:49:24;99661.22;;;3.13;100.00
15382;BME280;7789;51.364;12.358;2022-12-10T13:54:59;99665.66;;;3.11;100.00
15382;BME280;7789;51.364;12.358;2022-12-10T14:00:34;99666.78;;;3.07;100.00
15382;BME280;7789;51.364;12.358;2022-12-10T14:06:16;99682.47;;;3.04;100.00
15382;BME280;7789;51.364;12.358;2022-12-10T14:11:46;99681.03;;;3.00;100.00
15382;BME280;7789;51.364;12.358;2022-12-10T14:17:13;99682.03;;;2.97;100.00
15382;BME280;7789;51.364;12.358;2022-12-10T14:22:39;99684.22;;;2.89;100.00
15382;BME280;7789;51.364;12.358;2022-12-10T14:28:12;99673.03;;;2.90;100.00
15382;BME280;7789;51.364;12.358;2022-12-10T14:33:37;99682.78;;;2.85;100.00
15382;BME280;7789;51.364;12.358;2022-12-10T14:39:00;99677.06;;;2.80;100.00
15382;BME280;7789;51.364;12.358;2022-12-10T14:44:23;99684.44;;;2.72;100.00
15382;BME280;7789;51.364;12.358;2022-12-10T14:49:47;99686.41;;;2.69;100.00
15382;BME280;7789;51.364;12.358;2022-12-10T15:08:23;99697.38;;;2.58;100.00
15382;BME280;7789;51.364;12.358;2022-12-10T15:13:47;99702.41;;;2.60;100.00
15382;BME280;7789;51.364;12.358;2022-12-10T15:19:18;99700.69;;;2.60;100.00
15382;BME280;7789;51.364;12.358;2022-12-10T15:24:42;99709.34;;;2.59;100.00
15382;BME280;7789;51.364;12.358;2022-12-10T15:30:22;99715.44;;;2.58;100.00
15382;BME280;7789;51.364;12.358;2022-12-10T15:35:44;99728.03;;;2.49;100.00
15382;BME280;7789;51.364;12.358;2022-12-10T15:41:37;99729.41;;;2.54;100.00
15382;BME280;7789;51.364;12.358;2022-12-10T15:47:08;99731.44;;;2.49;100.00
15382;BME280;7789;51.364;12.358;2022-12-10T15:52:31;99739.16;;;2.49;100.00
15382;BME280;7789;51.364;12.358;2022-12-10T15:57:56;99747.09;;;2.46;100.00
15382;BME280;7789;51.364;12.358;2022-12-10T16:03:21;99755.81;;;2.44;100.00
15382;BME280;7789;51.364;12.358;2022-12-10T16:08:46;99757.22;;;2.49;100.00
15382;BME280;7789;51.364;12.358;2022-12-10T16:14:11;99752.00;;;2.51;100.00
15382;BME280;7789;51.364;12.358;2022-12-10T16:19:33;99756.50;;;2.47;100.00
15382;BME280;7789;51.364;12.358;2022-12-10T16:24:57;99764.41;;;2.44;100.00
15382;BME280;7789;51.364;12.358;2022-12-10T16:30:24;99758.88;;;2.50;100.00
15382;BME280;7789;51.364;12.358;2022-12-10T16:35:52;99765.06;;;2.48;100.00
15382;BME280;7789;51.364;12.358;2022-12-10T16:41:20;99768.00;;;2.42;100.00
15382;BME280;7789;51.364;12.358;2022-12-10T16:46:44;99769.75;;;2.41;100.00
15382;BME280;7789;51.364;12.358;2022-12-10T16:52:06;99771.16;;;2.47;100.00
15382;BME280;7789;51.364;12.358;2022-12-10T16:57:33;99773.88;;;2.44;100.00
15382;BME280;7789;51.364;12.358;2022-12-10T17:02:57;99774.00;;;2.42;100.00
15382;BME280;7789;51.364;12.358;2022-12-10T17:08:28;99767.06;;;2.43;100.00
15382;BME280;7789;51.364;12.358;2022-12-10T17:13:50;99781.06;;;2.39;100.00
15382;BME280;7789;51.364;12.358;2022-12-10T17:19:14;99778.47;;;2.39;100.00
15382;BME280;7789;51.364;12.358;2022-12-10T17:24:41;99777.56;;;2.40;100.00
15382;BME280;7789;51.364;12.358;2022-12-10T17:30:12;99775.16;;;2.37;100.00
15382;BME280;7789;51.364;12.358;2022-12-10T17:35:36;99780.25;;;2.38;100.00
15382;BME280;7789;51.364;12.358;2022-12-10T17:40:59;99777.19;;;2.32;100.00
15382;BME280;7789;51.364;12.358;2022-12-10T17:46:23;99778.13;;;2.31;100.00
15382;BME280;7789;51.364;12.358;2022-12-10T17:51:49;99780.03;;;2.27;100.00
15382;BME280;7789;51.364;12.358;2022-12-10T17:57:17;99785.75;;;2.32;100.00
15382;BME280;7789;51.364;12.358;2022-12-10T18:02:40;99792.66;;;2.32;100.00
15382;BME280;7789;51.364;12.358;2022-12-10T18:08:05;99791.09;;;2.29;100.00
15382;BME280;7789;51.364;12.358;2022-12-10T18:13:27;99797.22;;;2.27;100.00
15382;BME280;7789;51.364;12.358;2022-12-10T18:18:49;99798.06;;;2.27;100.00
15382;BME280;7789;51.364;12.358;2022-12-10T18:24:12;99805.25;;;2.22;100.00
15382;BME280;7789;51.364;12.358;2022-12-10T18:29:35;99814.34;;;2.14;100.00
15382;BME280;7789;51.364;12.358;2022-12-10T18:34:57;99820.47;;;2.11;100.00
15382;BME280;7789;51.364;12.358;2022-12-10T18:40:22;99809.34;;;2.11;100.00
15382;BME280;7789;51.364;12.358;2022-12-10T18:45:44;99804.53;;;2.05;100.00
15382;BME280;7789;51.364;12.358;2022-12-10T18:51:05;99795.06;;;2.05;100.00
15382;BME280;7789;51.364;12.358;2022-12-10T18:56:29;99802.94;;;2.02;100.00
15382;BME280;7789;51.364;12.358;2022-12-10T19:01:51;99797.97;;;1.99;100.00
15382;BME280;7789;51.364;12.358;2022-12-10T19:07:14;99803.47;;;1.93;100.00
15382;BME280;7789;51.364;12.358;2022-12-10T19:12:40;99794.84;;;1.94;100.00
15382;BME280;7789;51.364;12.358;2022-12-10T19:18:03;99808.38;;;1.98;100.00
15382;BME280;7789;51.364;12.358;2022-12-10T19:23:25;99806.56;;;2.00;100.00
15382;BME280;7789;51.364;12.358;2022-12-10T19:28:49;99801.66;;;1.95;100.00
15382;BME280;7789;51.364;12.358;2022-12-10T19:34:11;99807.16;;;1.89;100.00
15382;BME280;7789;51.364;12.358;2022-12-10T19:39:34;99812.19;;;1.91;100.00
15382;BME280;7789;51.364;12.358;2022-12-10T19:44:57;99813.13;;;1.90;100.00
15382;BME280;7789;51.364;12.358;2022-12-10T19:50:21;99823.41;;;1.90;100.00
15382;BME280;7789;51.364;12.358;2022-12-10T19:55:43;99818.28;;;1.90;100.00
15382;BME280;7789;51.364;12.358;2022-12-10T20:01:07;99819.19;;;1.89;100.00
15382;BME280;7789;51.364;12.358;2022-12-10T20:06:30;99819.38;;;1.86;100.00
15382;BME280;7789;51.364;12.358;2022-12-10T20:11:56;99815.19;;;1.83;100.00
15382;BME280;7789;51.364;12.358;2022-12-10T20:17:19;99816.13;;;1.82;100.00
15382;BME280;7789;51.364;12.358;2022-12-10T20:22:44;99829.91;;;1.81;100.00
15382;BME280;7789;51.364;12.358;2022-12-10T20:28:06;99833.59;;;1.77;100.00
15382;BME280;7789;51.364;12.358;2022-12-10T20:33:30;99821.50;;;1.78;100.00
15382;BME280;7789;51.364;12.358;2022-12-10T20:39:14;99835.16;;;1.80;100.00
15382;BME280;7789;51.364;12.358;2022-12-10T20:44:37;99830.75;;;1.82;100.00
15382;BME280;7789;51.364;12.358;2022-12-10T20:50:01;99831.19;;;1.75;100.00
15382;BME280;7789;51.364;12.358;2022-12-10T20:55:24;99826.84;;;1.75;100.00
15382;BME280;7789;51.364;12.358;2022-12-10T21:00:46;99825.09;;;1.76;100.00
15382;BME280;7789;51.364;12.358;2022-12-10T21:06:14;99827.59;;;1.77;100.00
15382;BME280;7789;51.364;12.358;2022-12-10T21:11:38;99836.09;;;1.79;100.00
15382;BME280;7789;51.364;12.358;2022-12-10T21:17:02;99826.03;;;1.75;100.00
15382;BME280;7789;51.364;12.358;2022-12-10T21:22:25;99828.50;;;1.76;100.00
15382;BME280;7789;51.364;12.358;2022-12-10T21:27:47;99820.78;;;1.76;100.00
15382;BME280;7789;51.364;12.358;2022-12-10T21:33:09;99820.78;;;1.76;100.00
15382;BME280;7789;51.364;12.358;2022-12-10T21:38:33;99825.09;;;1.76;100.00
15382;BME280;7789;51.364;12.358;2022-12-10T21:43:55;99817.22;;;1.63;100.00
15382;BME280;7789;51.364;12.358;2022-12-10T21:49:17;99817.47;;;1.59;100.00
15382;BME280;7789;51.364;12.358;2022-12-10T21:54:40;99819.47;;;1.54;100.00
15382;BME280;7789;51.364;12.358;2022-12-10T22:06:24;99815.91;;;1.41;100.00
15382;BME280;7789;51.364;12.358;2022-12-10T22:11:48;99814.31;;;1.38;100.00
15382;BME280;7789;51.364;12.358;2022-12-10T22:17:09;99816.38;;;1.32;100.00
15382;BME280;7789;51.364;12.358;2022-12-10T22:22:32;99826.91;;;1.27;100.00
15382;BME280;7789;51.364;12.358;2022-12-10T22:27:55;99831.16;;;1.28;100.00
15382;BME280;7789;51.364;12.358;2022-12-10T22:33:17;99818.13;;;1.31;100.00
15382;BME280;7789;51.364;12.358;2022-12-10T22:38:39;99813.06;;;1.30;100.00
15382;BME280;7789;51.364;12.358;2022-12-10T22:44:02;99814.31;;;1.23;100.00
15382;BME280;7789;51.364;12.358;2022-12-10T22:49:25;99822.31;;;1.17;100.00
15382;BME280;7789;51.364;12.358;2022-12-10T22:54:46;99821.41;;;1.18;100.00
15382;BME280;7789;51.364;12.358;2022-12-10T23:00:13;99825.00;;;1.15;100.00
15382;BME280;7789;51.364;12.358;2022-12-10T23:05:35;99824.38;;;1.10;100.00
15382;BME280;7789;51.364;12.358;2022-12-10T23:10:57;99823.41;;;1.13;100.00
15382;BME280;7789;51.364;12.358;2022-12-10T23:16:21;99821.00;;;1.10;100.00
15382;BME280;7789;51.364;12.358;2022-12-10T23:21:42;99815.34;;;1.03;99.53
15382;BME280;7789;51.364;12.358;2022-12-10T23:27:05;99824.13;;;0.99;99.34
15382;BME280;7789;51.364;12.358;2022-12-10T23:32:28;99824.38;;;0.95;98.86
15382;BME280;7789;51.364;12.358;2022-12-10T23:37:50;99815.84;;;0.94;98.28
15382;BME280;7789;51.364;12.358;2022-12-10T23:43:12;99824.13;;;0.99;98.56
15382;BME280;7789;51.364;12.358;2022-12-10T23:48:35;99817.22;;;1.00;98.36
15382;BME280;7789;51.364;12.358;2022-12-10T23:53:57;99807.84;;;0.99;98.44
15382;BME280;7789;51.364;12.358;2022-12-10T23:59:19;99812.25;;;0.97;97.70
